TimeCDT,TemperatureF,Dew PointF,Humidity,Sea Level PressureIn,VisibilityMPH,Wind Direction,Wind SpeedMPH,Gust SpeedMPH,PrecipitationIn,Events,Conditions,WindDirDegrees,DateUTC
12:54 AM,72.0,62.1,71,29.92,9.0,SE,10.4,-,N/A,,Clear,130,2013-08-21 05:54:00
1:54 AM,72.0,62.1,71,29.91,10.0,SSE,11.5,-,N/A,,Clear,150,2013-08-21 06:54:00
2:54 AM,69.1,62.1,78,29.91,9.0,SSE,10.4,-,N/A,,Clear,150,2013-08-21 07:54:00
3:54 AM,68.0,62.1,81,29.91,8.0,SSE,10.4,-,N/A,,Clear,150,2013-08-21 08:54:00
4:54 AM,66.9,61.0,81,29.91,7.0,SSE,10.4,-,N/A,,Clear,160,2013-08-21 09:54:00
5:54 AM,66.9,61.0,81,29.91,8.0,SSE,10.4,-,N/A,,Clear,150,2013-08-21 10:54:00
6:54 AM,66.0,60.1,81,29.91,8.0,SSE,10.4,-,N/A,,Clear,150,2013-08-21 11:54:00
7:54 AM,66.9,60.1,79,29.94,7.0,South,9.2,-,N/A,,Clear,170,2013-08-21 12:54:00
8:54 AM,73.0,60.1,64,29.94,8.0,South,10.4,-,N/A,,Clear,170,2013-08-21 13:54:00
9:54 AM,78.1,60.1,54,29.94,10.0,South,15.0,23.0,N/A,,Clear,180,2013-08-21 14:54:00
10:54 AM,82.0,60.1,47,29.94,10.0,South,19.6,25.3,N/A,,Clear,190,2013-08-21 15:54:00
11:54 AM,86.0,60.1,41,29.93,10.0,South,18.4,25.3,N/A,,Clear,180,2013-08-21 16:54:00
12:54 PM,89.1,59.0,36,29.92,10.0,South,17.3,26.5,N/A,,Clear,190,2013-08-21 17:54:00
1:54 PM,91.0,60.1,35,29.90,10.0,South,16.1,27.6,N/A,,Clear,170,2013-08-21 18:54:00
2:54 PM,93.0,59.0,32,29.90,10.0,South,19.6,27.6,N/A,,Clear,190,2013-08-21 19:54:00
3:54 PM,93.9,57.9,30,29.89,10.0,South,21.9,28.8,N/A,,Clear,170,2013-08-21 20:54:00
4:54 PM,93.0,57.9,31,29.88,10.0,South,23.0,28.8,N/A,,Clear,190,2013-08-21 21:54:00
5:54 PM,91.9,57.0,31,29.87,10.0,South,18.4,28.8,N/A,,Clear,170,2013-08-21 22:54:00
6:54 PM,90.0,57.9,34,29.88,10.0,South,20.7,29.9,N/A,,Clear,170,2013-08-21 23:54:00
7:54 PM,86.0,60.1,41,29.89,10.0,South,16.1,23.0,N/A,,Clear,170,2013-08-22 00:54:00
8:54 PM,82.0,60.1,47,29.90,10.0,SSE,12.7,20.7,N/A,,Clear,160,2013-08-22 01:54:00
9:54 PM,79.0,59.0,50,29.93,10.0,SSE,10.4,-,N/A,,Clear,160,2013-08-22 02:54:00
10:54 PM,77.0,57.0,50,29.94,10.0,SSE,11.5,-,N/A,,Clear,160,2013-08-22 03:54:00
11:54 PM,75.0,55.9,51,29.93,10.0,South,13.8,-,N/A,,Clear,170,2013-08-22 04:54:00